Rushville, Nebraska
Current Conditions -  °F | °C
As of 7:52 AM on Saturday 20 Dec 2014 (Local Time) from KIEN Reporting Station
Overcast Overcast  
Wind Chill: 23°   Ceiling: 11000
Heat Index: 30°   Visibility: 10mi
Dew Point: 21°   Wind: 7mph
Humidity: 69%   Direction: 270°W
Pressure: 29.93"   Gusts: NA
Location:  42.72°N, 102.46°W
Report Text: KIEN 201452Z AUTO 27006KT 10SM FEW090 OVC110 M01/M06 A2993 RMK AO2 SLP170 T10111061 52003
Loading
Personal Weather Stations






























Interactive Weather Map New forecast layout! Learn more

10-Day Weather Forecast

Advertisements
Track Severe Weather on mobile